createdAt,value
2023-11-24T00:00:12.781Z,6.35
2023-11-24T00:03:01.261Z,6.36
2023-11-24T00:05:29.805Z,6.39
2023-11-24T00:07:58.492Z,6.39
2023-11-24T00:10:30.002Z,6.38
2023-11-24T00:12:58.571Z,6.35
2023-11-24T00:15:28.792Z,6.34
2023-11-24T00:17:58.279Z,6.36
2023-11-24T00:20:27.344Z,6.35
2023-11-24T00:22:57.154Z,6.32
2023-11-24T00:25:25.549Z,6.29
2023-11-24T00:27:56.105Z,6.29
2023-11-24T00:30:24.575Z,6.38
2023-11-24T00:32:53.025Z,6.44
2023-11-24T00:35:22.509Z,6.48
2023-11-24T00:37:51.024Z,6.50
2023-11-24T00:40:19.823Z,6.49
2023-11-24T00:42:48.101Z,6.51
2023-11-24T00:45:17.896Z,6.57
2023-11-24T00:47:46.488Z,6.60
2023-11-24T00:50:15.573Z,6.64
2023-11-24T00:52:44.300Z,6.64
2023-11-24T00:55:12.661Z,6.63
2023-11-24T00:57:40.925Z,6.60
2023-11-24T01:00:10.242Z,6.62
2023-11-24T01:02:40.070Z,6.65
2023-11-24T01:05:10.960Z,6.68
2023-11-24T01:07:39.487Z,6.70
2023-11-24T01:10:10.497Z,6.71
2023-11-24T01:12:40.151Z,6.68
2023-11-24T01:15:10.225Z,6.71
2023-11-24T01:17:38.469Z,6.70
2023-11-24T01:20:11.240Z,6.72
2023-11-24T01:22:40.111Z,6.69
2023-11-24T01:25:09.447Z,6.65
2023-11-24T01:27:37.803Z,6.66
2023-11-24T01:30:09.059Z,6.67
2023-11-24T01:32:37.921Z,6.66
2023-11-24T01:35:07.081Z,6.67
2023-11-24T01:37:35.348Z,6.65
2023-11-24T01:40:07.332Z,6.66
2023-11-24T01:42:38.836Z,6.70
2023-11-24T01:45:11.531Z,6.72
2023-11-24T01:47:40.432Z,6.73
2023-11-24T01:50:11.396Z,6.71
2023-11-24T01:52:41.090Z,6.66
2023-11-24T01:55:14.417Z,6.65
2023-11-24T01:57:43.879Z,6.68
2023-11-24T02:00:14.904Z,6.67
2023-11-24T02:02:44.127Z,6.66
2023-11-24T02:05:13.557Z,6.66
2023-11-24T02:07:45.701Z,6.66
2023-11-24T02:10:16.153Z,6.67
2023-11-24T02:12:44.547Z,6.66
2023-11-24T02:15:13.813Z,6.66
2023-11-24T02:17:42.432Z,6.63
2023-11-24T02:20:16.674Z,6.66
2023-11-24T02:22:45.386Z,6.69
2023-11-24T02:25:14.930Z,6.70
2023-11-24T02:27:43.372Z,6.70
2023-11-24T02:30:13.068Z,6.67
2023-11-24T02:32:41.520Z,6.66
2023-11-24T02:35:11.096Z,6.67
2023-11-24T02:37:40.169Z,6.67
2023-11-24T02:40:09.911Z,6.66
2023-11-24T02:42:38.184Z,6.65
2023-11-24T02:45:07.667Z,6.60
2023-11-24T02:47:36.543Z,6.61
2023-11-24T02:50:05.857Z,6.62
2023-11-24T02:52:34.334Z,6.60
2023-11-24T02:55:03.402Z,6.60
2023-11-24T02:57:32.132Z,6.60
2023-11-24T03:00:00.705Z,6.61
2023-11-24T03:02:29.738Z,6.60
2023-11-24T03:04:58.422Z,6.55
2023-11-24T03:07:28.012Z,6.56
2023-11-24T03:09:56.497Z,6.58
2023-11-24T03:12:24.883Z,6.58
2023-11-24T03:14:55.303Z,6.58
2023-11-24T03:17:23.970Z,6.57
2023-11-24T03:19:52.342Z,6.55
2023-11-24T03:22:21.644Z,6.52
2023-11-24T03:24:50.180Z,6.45
2023-11-24T03:27:18.395Z,6.44
2023-11-24T03:29:46.727Z,6.45
2023-11-24T03:32:15.874Z,6.44
2023-11-24T03:34:44.186Z,6.43
2023-11-24T03:37:12.836Z,6.43
2023-11-24T03:39:41.327Z,6.42
2023-11-24T03:42:09.808Z,6.40
2023-11-24T03:44:39.818Z,6.42
2023-11-24T03:47:08.192Z,6.41
2023-11-24T03:49:37.189Z,6.39
2023-11-24T03:52:06.116Z,6.36
2023-11-24T03:54:35.196Z,6.33
2023-11-24T03:57:04.099Z,6.32
2023-11-24T03:59:32.346Z,6.32
2023-11-24T04:02:00.624Z,6.29
2023-11-24T04:04:30.320Z,6.26
2023-11-24T04:06:59.343Z,6.20
2023-11-24T04:09:27.843Z,6.20
2023-11-24T04:11:56.388Z,6.21
2023-11-24T04:14:24.786Z,6.23
2023-11-24T04:16:53.093Z,6.23
2023-11-24T04:19:22.079Z,6.19
2023-11-24T04:21:50.438Z,6.16
2023-11-24T04:24:19.409Z,6.16
2023-11-24T04:26:47.689Z,6.12
2023-11-24T04:29:17.220Z,6.07
2023-11-24T04:31:45.878Z,6.01
2023-11-24T04:34:14.346Z,5.97
2023-11-24T04:36:42.558Z,5.97
2023-11-24T04:39:11.021Z,5.95
2023-11-24T04:41:39.294Z,5.92
2023-11-24T04:44:07.570Z,5.91
2023-11-24T04:46:35.917Z,5.87
2023-11-24T04:49:05.246Z,5.79
2023-11-24T04:51:33.658Z,5.78
2023-11-24T04:54:05.002Z,5.78
2023-11-24T04:56:33.351Z,5.76
2023-11-24T04:59:02.139Z,5.74
2023-11-24T05:01:30.894Z,5.72
2023-11-24T05:04:01.040Z,5.69
2023-11-24T05:06:29.575Z,5.69
2023-11-24T05:08:58.023Z,5.68
2023-11-24T05:11:27.520Z,5.66
2023-11-24T05:13:56.093Z,5.67
2023-11-24T05:16:24.534Z,5.67
2023-11-24T05:18:53.900Z,5.67
2023-11-24T05:21:22.265Z,5.72
2023-11-24T05:23:50.813Z,5.77
2023-11-24T05:26:19.122Z,5.80
2023-11-24T05:28:47.404Z,5.82
2023-11-24T05:31:15.969Z,5.85
2023-11-24T05:33:44.524Z,5.85
2023-11-24T05:36:12.843Z,5.86
2023-11-24T05:38:41.118Z,5.89
2023-11-24T05:41:09.914Z,5.93
2023-11-24T05:43:40.121Z,5.96
2023-11-24T05:46:08.673Z,5.99
2023-11-24T05:48:37.427Z,5.99
2023-11-24T05:51:06.705Z,5.98
2023-11-24T05:53:36.301Z,6.01
2023-11-24T05:56:09.540Z,6.03
2023-11-24T05:58:37.881Z,6.04
2023-11-24T06:01:06.290Z,6.04
2023-11-24T06:03:34.696Z,6.04
2023-11-24T06:06:03.238Z,6.09
2023-11-24T06:08:32.717Z,6.16
2023-11-24T06:11:01.116Z,6.20
2023-11-24T06:13:29.582Z,6.24
2023-11-24T06:15:58.339Z,6.30
2023-11-24T06:18:29.870Z,6.47
2023-11-24T06:20:58.198Z,7.08
2023-11-24T06:23:26.483Z,7.88
2023-11-24T06:25:54.858Z,8.54
2023-11-24T06:28:23.334Z,8.97
2023-11-24T06:30:51.714Z,9.36
2023-11-24T06:33:20.221Z,9.77
2023-11-24T06:35:48.492Z,10.04
2023-11-24T06:38:16.817Z,10.43
2023-11-24T06:40:45.430Z,10.71
2023-11-24T06:43:38.580Z,11.06
2023-11-24T06:46:07.104Z,11.24
2023-11-24T06:48:39.525Z,11.37
2023-11-24T06:51:08.760Z,11.74
2023-11-24T06:53:37.239Z,11.86
2023-11-24T06:56:06.014Z,11.84
2023-11-24T07:09:28.834Z,11.59
2023-11-24T07:11:57.113Z,10.77
2023-11-24T07:14:25.395Z,10.15
2023-11-24T07:16:54.103Z,9.63
2023-11-24T07:19:23.352Z,9.18
2023-11-24T07:21:51.837Z,8.85
2023-11-24T07:24:20.240Z,8.54
2023-11-24T07:26:48.917Z,8.26
2023-11-24T07:29:17.603Z,8.08
2023-11-24T07:31:46.693Z,8.00
2023-11-24T07:34:15.147Z,7.90
2023-11-24T07:36:44.117Z,7.78
2023-11-24T07:39:12.638Z,7.68
2023-11-24T07:41:41.240Z,7.67
2023-11-24T07:44:10.274Z,7.62
2023-11-24T07:47:07.076Z,7.52
2023-11-24T07:49:35.638Z,7.47
2023-11-24T07:52:06.356Z,7.51
2023-11-24T07:54:34.907Z,7.55
2023-11-24T07:57:03.565Z,7.56
2023-11-24T07:59:32.140Z,7.61
2023-11-24T08:02:00.482Z,7.73
2023-11-24T08:04:29.588Z,7.81
2023-11-24T08:06:58.187Z,7.81
2023-11-24T08:09:27.026Z,7.82
2023-11-24T08:11:56.601Z,7.87
2023-11-24T08:14:25.512Z,7.88
2023-11-24T08:16:54.330Z,7.82
2023-11-24T08:19:27.129Z,7.76
2023-11-24T08:21:55.569Z,7.78
2023-11-24T08:24:23.918Z,7.82
2023-11-24T08:26:52.788Z,7.84
2023-11-24T08:29:21.598Z,7.84
2023-11-24T08:31:51.310Z,7.88
2023-11-24T08:34:20.690Z,7.95
2023-11-24T08:36:49.092Z,7.93
2023-11-24T08:39:19.312Z,7.92
2023-11-24T08:41:50.865Z,7.93
2023-11-24T08:44:27.851Z,8.01
2023-11-24T08:46:56.471Z,8.04
2023-11-24T08:49:24.634Z,8.03
2023-11-24T08:51:53.345Z,8.04
2023-11-24T08:54:23.855Z,8.09
2023-11-24T08:56:52.213Z,8.16
2023-11-24T08:59:20.794Z,8.17
2023-11-24T09:01:50.931Z,8.17
2023-11-24T09:04:20.795Z,8.18
2023-11-24T09:06:49.734Z,8.27
2023-11-24T09:09:18.285Z,8.35
2023-11-24T09:11:48.244Z,8.40
2023-11-24T09:14:16.712Z,8.46
2023-11-24T09:16:45.173Z,8.55
2023-11-24T09:19:13.831Z,8.66
2023-11-24T09:21:42.462Z,8.74
2023-11-24T09:24:13.290Z,8.77
2023-11-24T09:26:44.569Z,8.79
2023-11-24T09:29:13.338Z,8.80
2023-11-24T09:31:43.430Z,8.88
2023-11-24T09:34:11.967Z,8.88
2023-11-24T09:36:43.781Z,8.87
2023-11-24T09:39:12.655Z,8.89
2023-11-24T09:41:41.696Z,8.88
2023-11-24T09:44:11.688Z,8.95
2023-11-24T09:46:49.262Z,8.99
2023-11-24T09:49:22.145Z,8.98
2023-11-24T09:51:50.343Z,8.95
2023-11-24T09:54:19.484Z,8.93
2023-11-24T09:56:47.968Z,8.98
2023-11-24T09:59:16.892Z,8.98
2023-11-24T10:01:48.956Z,8.97
2023-11-24T10:04:17.241Z,8.96
2023-11-24T10:06:46.733Z,8.93
2023-11-24T10:09:23.718Z,8.97
2023-11-24T10:11:52.294Z,9.05
2023-11-24T10:14:23.278Z,9.11
2023-11-24T10:16:51.759Z,9.18
2023-11-24T10:19:23.459Z,9.24
2023-11-24T10:21:56.395Z,9.28
2023-11-24T10:24:26.766Z,9.37
2023-11-24T10:26:55.370Z,9.42
2023-11-24T10:29:29.585Z,9.42
2023-11-24T10:31:58.169Z,9.42
2023-11-24T10:34:27.657Z,9.45
2023-11-24T10:36:56.420Z,9.54
2023-11-24T10:39:26.909Z,9.63
2023-11-24T10:41:56.188Z,9.69
2023-11-24T10:44:26.412Z,9.72
2023-11-24T10:47:01.848Z,9.74
2023-11-24T10:49:41.531Z,9.70
2023-11-24T10:52:33.946Z,9.67
2023-11-24T10:55:10.148Z,9.56
2023-11-24T10:57:40.865Z,9.49
2023-11-24T11:00:10.181Z,9.45
2023-11-24T11:02:41.840Z,9.47
2023-11-24T11:05:28.098Z,9.45
2023-11-24T11:08:29.507Z,9.40
2023-11-24T11:11:14.032Z,9.41
2023-11-24T11:13:44.620Z,9.47
2023-11-24T11:16:16.754Z,9.51
2023-11-24T11:18:45.353Z,9.56
2023-11-24T11:21:33.036Z,9.62
2023-11-24T11:24:11.842Z,9.72
2023-11-24T11:26:50.292Z,9.81
2023-11-24T11:29:25.732Z,9.81
2023-11-24T11:31:57.230Z,9.84
2023-11-24T11:34:31.583Z,9.88
2023-11-24T11:37:21.404Z,9.96
2023-11-24T11:39:59.459Z,10.05
2023-11-24T11:42:51.540Z,10.25
2023-11-24T11:45:26.184Z,10.33
2023-11-24T11:47:54.633Z,10.38
2023-11-24T11:50:25.938Z,10.44
2023-11-24T11:52:59.231Z,10.52
2023-11-24T11:55:30.509Z,10.47
2023-11-24T11:58:01.916Z,10.40
2023-11-24T12:00:31.569Z,10.39
2023-11-24T12:03:00.424Z,10.39
2023-11-24T12:05:29.025Z,10.40
2023-11-24T12:07:59.904Z,10.38
2023-11-24T12:10:31.461Z,10.38
2023-11-24T12:13:06.061Z,10.35
2023-11-24T12:15:35.908Z,10.37
2023-11-24T12:18:06.860Z,10.42
2023-11-24T12:20:38.024Z,10.41
2023-11-24T12:23:09.280Z,10.38
2023-11-24T12:25:40.912Z,10.37
2023-11-24T12:28:11.649Z,10.36
2023-11-24T12:30:44.486Z,10.38
2023-11-24T12:33:13.184Z,10.49
2023-11-24T12:35:56.362Z,10.54
2023-11-24T12:38:25.258Z,10.56
2023-11-24T12:40:53.849Z,10.59
2023-11-24T12:43:25.528Z,10.61
2023-11-24T12:45:54.119Z,10.65
2023-11-24T12:48:26.766Z,10.70
2023-11-24T12:50:59.790Z,10.83
2023-11-24T12:53:30.174Z,10.93
2023-11-24T12:55:59.091Z,10.98
2023-11-24T12:58:27.706Z,10.99
2023-11-24T13:00:58.549Z,10.98
2023-11-24T13:03:27.990Z,11.00
2023-11-24T13:05:56.479Z,10.96
2023-11-24T13:08:24.957Z,10.89
2023-11-24T13:10:55.067Z,10.83
2023-11-24T13:13:23.549Z,10.80
2023-11-24T13:15:53.663Z,10.81
2023-11-24T13:18:22.660Z,10.81
2023-11-24T13:20:51.559Z,10.76
2023-11-24T13:23:20.144Z,10.70
2023-11-24T13:25:48.723Z,10.65
2023-11-24T13:28:17.256Z,10.62
2023-11-24T13:30:46.156Z,10.62
2023-11-24T13:33:16.496Z,10.61
2023-11-24T13:35:45.930Z,10.58
2023-11-24T13:38:15.948Z,10.55
2023-11-24T13:40:47.092Z,10.51
2023-11-24T13:43:15.687Z,10.47
2023-11-24T13:45:44.158Z,10.44
2023-11-24T13:48:13.982Z,10.43
2023-11-24T13:50:42.445Z,10.39
2023-11-24T13:53:13.372Z,10.34
2023-11-24T13:55:45.132Z,10.28
2023-11-24T13:58:14.484Z,10.24
2023-11-24T14:00:43.281Z,10.22
2023-11-24T14:03:11.756Z,10.25
2023-11-24T14:05:41.221Z,10.26
2023-11-24T14:08:10.845Z,10.25
2023-11-24T14:10:39.314Z,10.21
2023-11-24T14:13:07.688Z,10.18
2023-11-24T14:15:36.170Z,10.17
2023-11-24T14:18:08.242Z,10.18
2023-11-24T14:20:38.048Z,10.15
2023-11-24T14:23:06.221Z,10.10
2023-11-24T14:25:35.522Z,10.02
2023-11-24T14:28:05.254Z,9.96
2023-11-24T14:30:35.862Z,9.91
2023-11-24T14:33:04.670Z,9.88
2023-11-24T14:35:33.339Z,9.89
2023-11-24T14:38:02.858Z,9.90
2023-11-24T14:40:31.180Z,9.91
2023-11-24T14:43:00.037Z,9.89
2023-11-24T14:45:28.283Z,9.88
2023-11-24T14:47:56.577Z,9.86
2023-11-24T14:50:27.910Z,9.87
2023-11-24T14:52:56.501Z,9.89
2023-11-24T14:55:25.015Z,9.90
2023-11-24T14:57:53.481Z,9.89
2023-11-24T15:00:32.256Z,9.87
2023-11-24T15:03:16.022Z,9.85
2023-11-24T15:05:53.643Z,9.83
2023-11-24T15:08:22.105Z,9.85
2023-11-24T15:10:50.884Z,9.84
2023-11-24T15:13:26.092Z,9.78
2023-11-24T15:15:54.518Z,9.73
2023-11-24T15:18:22.884Z,9.68
2023-11-24T15:20:54.995Z,9.61
2023-11-24T15:23:26.823Z,9.53
2023-11-24T15:25:55.874Z,9.47
2023-11-24T15:28:25.229Z,9.45
2023-11-24T15:30:55.096Z,9.41
2023-11-24T15:33:24.185Z,9.39
2023-11-24T15:35:53.572Z,9.38
2023-11-24T15:38:23.339Z,9.37
2023-11-24T15:40:52.955Z,9.36
2023-11-24T15:43:22.839Z,9.34
2023-11-24T15:45:56.847Z,9.35
2023-11-24T15:48:27.296Z,9.36
2023-11-24T15:50:59.357Z,9.35
2023-11-24T15:53:28.673Z,9.34
2023-11-24T15:55:59.384Z,9.31
2023-11-24T15:58:28.499Z,9.30
2023-11-24T16:00:58.494Z,9.31
2023-11-24T16:03:27.348Z,9.36
2023-11-24T16:06:01.317Z,9.41
2023-11-24T16:08:34.577Z,9.45
2023-11-24T16:11:11.394Z,9.45
2023-11-24T16:13:45.971Z,9.43
2023-11-24T16:16:15.705Z,9.42
2023-11-24T16:18:45.903Z,9.41
2023-11-24T16:21:14.784Z,9.44
2023-11-24T16:23:43.407Z,9.47
2023-11-24T16:26:11.892Z,9.52
2023-11-24T16:28:41.499Z,9.57
2023-11-24T16:31:10.313Z,9.61
2023-11-24T16:33:40.192Z,9.65
2023-11-24T16:36:11.078Z,9.73
2023-11-24T16:38:43.113Z,9.81
2023-11-24T16:41:16.034Z,9.87
2023-11-24T16:43:44.389Z,9.91
2023-11-24T16:46:12.881Z,9.92
2023-11-24T16:48:41.885Z,9.92
2023-11-24T16:51:10.726Z,9.96
2023-11-24T16:53:42.275Z,10.00
2023-11-24T16:56:10.960Z,10.00
2023-11-24T16:58:39.342Z,9.97
2023-11-24T17:01:07.955Z,9.93
2023-11-24T17:03:38.899Z,9.89
2023-11-24T17:06:09.003Z,9.90
2023-11-24T17:08:40.746Z,9.89
2023-11-24T17:11:12.365Z,9.87
2023-11-24T17:13:40.996Z,9.85
2023-11-24T17:16:11.398Z,9.84
2023-11-24T17:18:40.207Z,9.83
2023-11-24T17:21:09.684Z,9.85
2023-11-24T17:23:42.392Z,9.89
2023-11-24T17:26:11.549Z,9.92
2023-11-24T17:28:40.295Z,9.93
2023-11-24T17:31:09.600Z,9.92
2023-11-24T17:33:39.303Z,9.91
2023-11-24T17:36:09.594Z,9.91
2023-11-24T17:38:38.191Z,9.96
2023-11-24T17:41:07.424Z,9.97
2023-11-24T17:43:35.784Z,9.97
2023-11-24T17:46:07.741Z,9.94
2023-11-24T17:48:37.136Z,9.91
2023-11-24T17:51:06.773Z,9.89
2023-11-24T17:53:37.035Z,9.87
2023-11-24T17:56:06.160Z,9.90
2023-11-24T17:58:35.093Z,9.92
2023-11-24T18:01:03.596Z,9.93
2023-11-24T18:03:34.088Z,9.91
2023-11-24T18:06:03.599Z,9.90
2023-11-24T18:08:35.385Z,9.89
2023-11-24T18:11:06.277Z,9.87
2023-11-24T18:13:34.813Z,9.91
2023-11-24T18:16:04.685Z,9.92
2023-11-24T18:18:33.656Z,9.92
2023-11-24T18:21:02.456Z,9.90
2023-11-24T18:23:32.516Z,9.90
2023-11-24T18:26:01.348Z,9.90
2023-11-24T18:28:30.118Z,9.90
2023-11-24T18:30:59.186Z,9.93
2023-11-24T18:33:27.924Z,9.95
2023-11-24T18:35:56.726Z,9.95
2023-11-24T18:38:26.497Z,9.93
2023-11-24T18:40:58.823Z,9.90
2023-11-24T18:43:36.733Z,9.85
2023-11-24T18:46:09.101Z,9.83
2023-11-24T18:48:38.083Z,9.86
2023-11-24T18:51:07.593Z,9.88
2023-11-24T18:53:35.936Z,9.87
2023-11-24T18:56:05.357Z,9.85
2023-11-24T18:58:34.151Z,9.85
2023-11-24T19:01:02.572Z,9.91
2023-11-24T19:03:32.660Z,10.05
2023-11-24T19:06:01.114Z,10.19
2023-11-24T19:08:29.903Z,10.31
2023-11-24T19:10:59.312Z,10.37
2023-11-24T19:13:27.902Z,10.37
2023-11-24T19:15:57.002Z,10.35
2023-11-24T19:18:25.566Z,10.35
2023-11-24T19:20:57.139Z,10.40
2023-11-24T19:23:26.118Z,10.43
2023-11-24T19:25:54.392Z,10.44
2023-11-24T19:28:22.817Z,10.43
2023-11-24T19:30:53.723Z,10.43
2023-11-24T19:33:22.499Z,10.49
2023-11-24T19:35:50.773Z,10.49
2023-11-24T19:38:19.262Z,10.47
2023-11-24T19:40:47.735Z,10.43
2023-11-24T19:43:16.857Z,10.40
2023-11-24T19:45:46.070Z,10.41
2023-11-24T19:48:15.741Z,10.46
2023-11-24T19:50:44.015Z,10.48
2023-11-24T19:53:13.631Z,10.49
2023-11-24T19:55:41.905Z,10.50
2023-11-24T19:58:10.810Z,10.49
2023-11-24T20:00:40.044Z,10.49
2023-11-24T20:03:08.506Z,10.50
2023-11-24T20:05:37.190Z,10.52
2023-11-24T20:08:06.267Z,10.55
2023-11-24T20:10:34.685Z,10.50
2023-11-24T20:13:04.937Z,10.45
2023-11-24T20:15:33.745Z,10.42
2023-11-24T20:18:03.937Z,10.40
2023-11-24T20:20:32.451Z,10.40
2023-11-24T20:23:00.732Z,10.36
2023-11-24T20:25:32.338Z,10.31
2023-11-24T20:28:01.775Z,10.26
2023-11-24T20:30:30.367Z,10.19
2023-11-24T20:32:58.672Z,10.11
2023-11-24T20:35:27.435Z,10.10
2023-11-24T20:37:55.711Z,10.06
2023-11-24T20:40:26.124Z,10.06
2023-11-24T20:42:54.644Z,10.05
2023-11-24T20:45:23.014Z,10.02
2023-11-24T20:47:51.503Z,9.98
2023-11-24T20:50:20.218Z,9.91
2023-11-24T20:52:49.979Z,9.87
2023-11-24T20:55:18.843Z,9.90
2023-11-24T20:57:48.098Z,9.91
2023-11-24T21:00:19.828Z,9.90
2023-11-24T21:02:49.412Z,9.80
2023-11-24T21:05:18.113Z,9.77
2023-11-24T21:07:46.408Z,9.76
2023-11-24T21:10:15.728Z,9.74
2023-11-24T21:12:44.384Z,9.77
2023-11-24T21:15:15.958Z,9.71
2023-11-24T21:17:44.787Z,9.69
2023-11-24T21:20:15.405Z,9.68
2023-11-24T21:22:43.712Z,9.64
2023-11-24T21:25:13.353Z,9.63
2023-11-24T21:27:41.818Z,9.64
2023-11-24T21:30:10.818Z,9.67
2023-11-24T21:32:39.364Z,9.68
2023-11-24T21:35:09.008Z,9.67
2023-11-24T21:37:37.395Z,9.64
2023-11-24T21:40:08.070Z,9.66
2023-11-24T21:42:36.914Z,9.68
2023-11-24T21:45:06.094Z,9.70
2023-11-24T21:47:34.844Z,9.71
2023-11-24T21:50:04.778Z,9.70
2023-11-24T21:52:34.220Z,9.69
2023-11-24T21:55:05.449Z,9.64
2023-11-24T21:57:34.553Z,9.62
2023-11-24T22:00:06.410Z,9.57
2023-11-24T22:02:40.850Z,9.56
2023-11-24T22:05:12.693Z,9.57
2023-11-24T22:07:42.335Z,9.59
2023-11-24T22:10:11.139Z,9.62
2023-11-24T22:12:39.690Z,9.63
2023-11-24T22:15:09.495Z,9.64
2023-11-24T22:17:38.316Z,9.70
2023-11-24T22:20:12.096Z,9.75
2023-11-24T22:22:41.179Z,9.64
2023-11-24T22:25:10.268Z,9.51
2023-11-24T22:27:38.672Z,9.43
2023-11-24T22:30:08.205Z,9.37
2023-11-24T22:32:37.057Z,9.36
2023-11-24T22:35:08.167Z,9.39
2023-11-24T22:37:36.621Z,9.39
2023-11-24T22:40:08.375Z,9.41
2023-11-24T22:42:36.911Z,9.42
2023-11-24T22:45:07.745Z,9.41
2023-11-24T22:47:39.566Z,9.43
2023-11-24T22:50:08.562Z,9.48
2023-11-24T22:52:37.711Z,9.53
2023-11-24T22:55:07.115Z,9.53
2023-11-24T22:57:35.787Z,9.55
2023-11-24T23:00:07.352Z,9.54
2023-11-24T23:02:36.009Z,9.54
2023-11-24T23:05:05.901Z,9.52
2023-11-24T23:07:34.339Z,9.54
2023-11-24T23:10:05.795Z,9.58
2023-11-24T23:12:34.459Z,9.57
2023-11-24T23:15:02.733Z,9.53
2023-11-24T23:17:31.015Z,9.50
2023-11-24T23:19:59.491Z,9.49
2023-11-24T23:22:34.965Z,9.47
2023-11-24T23:25:07.824Z,9.48
2023-11-24T23:27:37.018Z,9.49
2023-11-24T23:30:08.662Z,9.46
2023-11-24T23:32:37.231Z,9.44
2023-11-24T23:35:08.842Z,9.41
2023-11-24T23:37:37.255Z,9.40
2023-11-24T23:40:15.274Z,9.41
2023-11-24T23:42:45.933Z,9.42
2023-11-24T23:45:15.517Z,9.37
2023-11-24T23:47:44.290Z,9.36
2023-11-24T23:50:14.115Z,9.26
2023-11-24T23:52:43.542Z,9.24
2023-11-24T23:55:14.427Z,9.26
2023-11-24T23:57:43.267Z,9.29
